Time;durP1;ratioP1;P1;durP2;ratioP2;P2;SDS_P1;SDS_P2;PMS_P1;PMS_P2;Temp;Humidity;BMP_temperature;BMP_pressure;BME280_temperature;BME280_humidity;BME280_pressure;Samples;Min_cycle;Max_cycle;Signal;HPM_P1;HPM_P2
2022/05/06 00:00:51;;;;;;;45.28;21.63;;;;;;;10.61;99.71;101392.72;8361817;28;20151;-60
2022/05/06 00:04:52;;;;;;;43.60;21.27;;;;;;;10.29;99.13;101397.91;8355195;28;20044;-60
2022/05/06 00:08:52;;;;;;;45.08;22.85;;;;;;;10.46;99.17;101405.56;8330185;28;20037;-60
2022/05/06 00:12:53;;;;;;;41.28;22.52;;;;;;;10.31;99.25;101393.22;8348668;28;20037;-60
2022/05/06 00:16:53;;;;;;;41.17;22.75;;;;;;;10.33;99.12;101394.00;8338465;28;20079;-60
2022/05/06 00:20:54;;;;;;;45.50;24.77;;;;;;;10.33;99.77;101394.00;8341383;28;20041;-60
2022/05/06 00:24:56;;;;;;;57.20;27.85;;;;;;;10.59;99.24;101406.38;8329267;28;20037;-60
2022/05/06 00:28:56;;;;;;;57.90;29.48;;;;;;;10.49;99.56;101404.50;8327920;28;20048;-61
2022/05/06 00:32:56;;;;;;;55.28;29.27;;;;;;;10.51;99.69;101403.38;8329316;28;20044;-61
2022/05/06 00:36:57;;;;;;;56.37;30.20;;;;;;;10.13;100.00;101408.19;8327254;28;20029;-61
2022/05/06 00:40:57;;;;;;;55.92;30.15;;;;;;;10.14;100.00;101399.09;8358869;28;20368;-60
2022/05/06 00:44:58;;;;;;;50.55;26.77;;;;;;;10.26;100.00;101408.09;8365544;28;20729;-60
2022/05/06 00:48:59;;;;;;;48.35;24.88;;;;;;;10.27;100.00;101409.84;8377769;28;20516;-61
2022/05/06 00:53:01;;;;;;;47.90;25.08;;;;;;;10.18;99.55;101405.97;8353164;28;20095;-61
2022/05/06 00:57:01;;;;;;;48.08;25.95;;;;;;;9.33;100.00;101410.59;8327724;28;20041;-60
2022/05/06 01:01:03;;;;;;;53.55;26.90;;;;;;;9.38;100.00;101413.81;8328435;28;20036;-60
2022/05/06 01:05:03;;;;;;;53.22;29.42;;;;;;;9.59;100.00;101407.72;8328130;28;20037;-60
2022/05/06 01:09:04;;;;;;;56.28;29.35;;;;;;;9.83;100.00;101415.84;8327187;28;20040;-60
2022/05/06 01:13:05;;;;;;;50.90;28.13;;;;;;;9.79;100.00;101417.06;8327403;28;20037;-63
2022/05/06 01:17:05;;;;;;;69.88;30.25;;;;;;;9.76;100.00;101411.88;8339288;28;20037;-61
2022/05/06 01:21:06;;;;;;;53.42;28.23;;;;;;;9.79;100.00;101403.56;8349124;28;20040;-60
2022/05/06 01:25:06;;;;;;;49.30;28.70;;;;;;;9.65;100.00;101406.41;8353853;28;20083;-60
2022/05/06 01:29:09;;;;;;;55.25;29.27;;;;;;;9.83;100.00;101405.88;8355658;28;20040;-60
2022/05/06 01:33:11;;;;;;;59.13;28.70;;;;;;;9.84;100.00;101414.84;8355341;28;20044;-61
2022/05/06 01:37:15;;;;;;;63.05;31.42;;;;;;;10.09;100.00;101414.75;8357534;28;20036;-60
2022/05/06 01:41:22;;;;;;;54.00;29.75;;;;;;;9.90;100.00;101409.00;8358894;28;20444;-61
2022/05/06 01:45:24;;;;;;;63.03;33.35;;;;;;;9.41;100.00;101413.59;8350074;28;20041;-61
2022/05/06 01:49:26;;;;;;;64.25;33.15;;;;;;;9.34;100.00;101420.41;8326783;28;20053;-60
2022/05/06 01:53:27;;;;;;;62.97;33.25;;;;;;;9.12;100.00;101422.94;8330333;28;20041;-61
2022/05/06 01:57:28;;;;;;;74.40;36.55;;;;;;;9.15;100.00;101422.72;8324363;28;20068;-60
2022/05/06 02:01:32;;;;;;;71.70;35.65;;;;;;;9.36;100.00;101437.31;8325261;28;20490;-60
2022/05/06 02:05:33;;;;;;;63.90;34.05;;;;;;;9.46;100.00;101430.31;8326371;28;20056;-61
2022/05/06 02:09:33;;;;;;;65.88;32.33;;;;;;;9.34;100.00;101431.19;8325752;28;20045;-60
2022/05/06 02:13:34;;;;;;;70.97;35.35;;;;;;;9.23;100.00;101425.69;8325555;28;20038;-61
2022/05/06 02:17:34;;;;;;;56.47;31.52;;;;;;;9.01;100.00;101433.59;8325289;28;20065;-60
2022/05/06 02:21:35;;;;;;;61.25;32.80;;;;;;;9.04;100.00;101431.56;8344822;28;20043;-60
2022/05/06 02:25:36;;;;;;;75.65;34.17;;;;;;;9.36;100.00;101426.53;8357942;28;20056;-60
2022/05/06 02:29:36;;;;;;;55.78;28.75;;;;;;;8.83;100.00;101426.81;8357362;28;20041;-60
2022/05/06 02:33:36;;;;;;;63.65;31.27;;;;;;;8.84;100.00;101429.38;8357008;28;20033;-60
2022/05/06 02:37:37;;;;;;;72.80;34.58;;;;;;;9.02;100.00;101432.63;8346277;28;20053;-60
2022/05/06 02:41:37;;;;;;;65.35;31.17;;;;;;;8.61;100.00;101426.56;8326313;28;20041;-60
2022/05/06 02:45:37;;;;;;;68.15;33.92;;;;;;;8.76;100.00;101425.50;8345456;28;20037;-60
2022/05/06 02:49:38;;;;;;;68.80;33.73;;;;;;;8.87;100.00;101423.78;8332410;28;20413;-60
2022/05/06 02:53:38;;;;;;;62.22;31.13;;;;;;;8.92;100.00;101415.38;8353447;28;20297;-61
2022/05/06 02:57:38;;;;;;;54.15;30.33;;;;;;;8.55;100.00;101416.22;8355184;28;20548;-60
2022/05/06 03:01:39;;;;;;;69.20;30.63;;;;;;;8.65;100.00;101411.91;8356485;28;20029;-60
2022/05/06 03:05:39;;;;;;;53.90;29.38;;;;;;;8.40;100.00;101418.13;8356674;28;20044;-62
2022/05/06 03:09:40;;;;;;;62.20;31.80;;;;;;;8.45;100.00;101420.53;8356497;28;20048;-60
2022/05/06 03:13:40;;;;;;;58.70;30.48;;;;;;;8.56;100.00;101420.63;8337409;28;20401;-60
2022/05/06 03:17:41;;;;;;;58.97;30.48;;;;;;;8.30;100.00;101424.25;8322882;28;20125;-60
2022/05/06 03:21:45;;;;;;;60.28;29.33;;;;;;;8.57;100.00;101425.06;8343285;28;20040;-61
2022/05/06 03:25:45;;;;;;;54.40;29.37;;;;;;;8.48;100.00;101420.31;8355674;28;20447;-59
2022/05/06 03:29:47;;;;;;;50.03;27.90;;;;;;;8.39;100.00;101420.94;8352523;28;20087;-60
2022/05/06 03:33:47;;;;;;;50.20;29.20;;;;;;;8.41;100.00;101424.38;8341191;28;20295;-60
2022/05/06 03:37:48;;;;;;;51.10;29.08;;;;;;;7.99;100.00;101417.31;8333964;28;20041;-60
2022/05/06 03:41:49;;;;;;;59.40;32.03;;;;;;;8.17;100.00;101417.94;8332503;28;20557;-61
2022/05/06 03:45:49;;;;;;;61.08;32.30;;;;;;;8.29;100.00;101419.84;8352608;28;20507;-60
2022/05/06 03:51:20;;;;;;;54.80;29.65;;;;;;;8.13;100.00;101419.97;8361044;28;20043;-60
2022/05/06 03:54:10;;;;;;;63.15;34.72;;;;;;;8.47;100.00;101413.16;8361635;28;20036;-60
2022/05/06 03:58:10;;;;;;;61.17;33.03;;;;;;;8.52;100.00;101421.81;8360727;28;20477;-60
2022/05/06 04:02:10;;;;;;;59.75;31.50;;;;;;;8.09;100.00;101422.00;8339509;28;20099;-60
2022/05/06 04:06:13;;;;;;;55.03;31.17;;;;;;;7.96;100.00;101423.78;8328143;28;20034;-60
2022/05/06 04:10:14;;;;;;;65.32;34.35;;;;;;;7.89;100.00;101427.84;8320753;28;20292;-60
2022/05/06 04:14:14;;;;;;;63.10;33.38;;;;;;;7.95;100.00;101434.66;8310007;28;20041;-60
2022/05/06 04:18:15;;;;;;;62.42;33.85;;;;;;;8.41;100.00;101435.16;8321701;28;20045;-60
2022/05/06 04:23:30;;;;;;;68.93;35.55;;;;;;;8.35;100.00;101440.97;8360980;28;20036;-60
2022/05/06 04:26:35;;;;;;;63.30;33.30;;;;;;;8.15;100.00;101434.22;8357717;28;21946;-60
2022/05/06 04:30:36;;;;;;;67.33;35.50;;;;;;;8.11;100.00;101442.59;8348258;28;20479;-60
2022/05/06 04:34:36;;;;;;;72.05;37.35;;;;;;;8.18;100.00;101441.22;8360382;28;20275;-60
2022/05/06 04:38:36;;;;;;;78.07;42.30;;;;;;;8.24;100.00;101444.41;8357249;28;20037;-60
2022/05/06 04:42:37;;;;;;;83.35;43.92;;;;;;;8.39;100.00;101442.50;8356984;28;20451;-60
2022/05/06 04:46:37;;;;;;;88.90;45.53;;;;;;;8.68;100.00;101454.81;8354128;28;20266;-60
2022/05/06 04:50:39;;;;;;;78.97;41.10;;;;;;;8.70;100.00;101463.69;8372455;28;20044;-60
2022/05/06 04:54:39;;;;;;;71.15;38.25;;;;;;;8.86;100.00;101475.13;8388849;28;20617;-60
2022/05/06 04:58:40;;;;;;;69.57;37.13;;;;;;;8.92;100.00;101486.34;8383283;28;20436;-60
2022/05/06 05:02:40;;;;;;;63.85;36.63;;;;;;;9.03;100.00;101482.91;8388340;28;20040;-60
2022/05/06 05:06:40;;;;;;;68.65;36.92;;;;;;;9.13;100.00;101484.00;8388581;28;20040;-60
2022/05/06 05:10:41;;;;;;;70.75;37.35;;;;;;;9.41;100.00;101478.34;8371134;28;20039;-60
2022/05/06 05:14:41;;;;;;;71.75;39.20;;;;;;;9.48;100.00;101487.72;8361682;28;20033;-60
2022/05/06 05:18:42;;;;;;;76.82;39.75;;;;;;;9.62;100.00;101490.31;8351620;28;20041;-60
2022/05/06 05:22:43;;;;;;;84.90;40.80;;;;;;;9.84;100.00;101493.16;8345802;28;20034;-60
2022/05/06 05:26:43;;;;;;;93.07;43.88;;;;;;;10.01;100.00;101490.13;8325598;28;20141;-60
2022/05/06 05:30:44;;;;;;;79.90;42.35;;;;;;;10.44;100.00;101494.06;8312332;28;20050;-61
2022/05/06 05:34:46;;;;;;;80.43;43.72;;;;;;;10.71;100.00;101497.38;8306098;28;20038;-61
2022/05/06 05:38:46;;;;;;;81.10;43.90;;;;;;;10.87;100.00;101497.91;8304493;28;20049;-60
2022/05/06 05:42:46;;;;;;;85.40;44.37;;;;;;;11.20;100.00;101500.66;8320859;28;20052;-61
2022/05/06 05:51:07;;;;;;;85.88;46.13;;;;;;;11.89;99.58;101511.31;8335561;28;20068;-61
2022/05/06 05:55:08;;;;;;;85.80;44.88;;;;;;;12.33;99.51;101504.09;8327494;28;20456;-62
2022/05/06 05:59:09;;;;;;;85.10;45.63;;;;;;;12.47;98.85;101501.09;8349639;28;20049;-61
2022/05/06 06:03:10;;;;;;;94.38;46.97;;;;;;;12.75;98.47;101508.63;8344747;28;20465;-61
2022/05/06 06:07:11;;;;;;;87.63;46.30;;;;;;;13.22;96.98;101508.13;8374681;28;20535;-61
2022/05/06 06:11:11;;;;;;;86.95;48.15;;;;;;;13.38;95.33;101511.22;8383187;28;20447;-61
2022/05/06 06:15:12;;;;;;;85.97;45.67;;;;;;;13.53;96.68;101516.19;8362529;28;20059;-61
2022/05/06 06:19:12;;;;;;;90.05;49.08;;;;;;;13.59;97.22;101506.63;8365567;28;20752;-61
2022/05/06 06:23:13;;;;;;;84.03;46.25;;;;;;;14.01;96.30;101510.97;8375118;28;20087;-61
2022/05/06 06:27:13;;;;;;;92.67;49.17;;;;;;;14.04;95.08;101510.69;8323483;28;20449;-61
2022/05/06 06:31:14;;;;;;;92.57;47.20;;;;;;;14.28;92.85;101508.50;8353210;28;20271;-61
2022/05/06 06:35:14;;;;;;;94.40;50.70;;;;;;;14.47;96.37;101508.50;8365529;28;20045;-62
2022/05/06 06:39:14;;;;;;;91.38;48.13;;;;;;;14.55;93.81;101510.53;8339525;28;20076;-61
2022/05/06 06:43:15;;;;;;;88.60;49.03;;;;;;;14.78;93.95;101511.97;8328594;28;20406;-61
2022/05/06 06:47:15;;;;;;;96.57;49.07;;;;;;;14.80;92.35;101519.00;8323079;28;20038;-61
2022/05/06 06:51:16;;;;;;;91.50;49.85;;;;;;;15.33;90.85;101520.22;8331900;28;20345;-61
2022/05/06 06:55:17;;;;;;;83.75;48.10;;;;;;;15.80;88.12;101515.69;8339784;28;20072;-61
2022/05/06 06:59:17;;;;;;;83.72;47.70;;;;;;;15.85;88.54;101512.50;8357111;28;20142;-60
2022/05/06 07:03:18;;;;;;;90.57;50.57;;;;;;;15.60;89.53;101514.88;8354512;28;20071;-61
2022/05/06 07:11:53;;;;;;;82.97;48.72;;;;;;;16.39;87.05;101532.44;8362290;28;20037;-60
2022/05/06 07:15:54;;;;;;;84.82;48.60;;;;;;;16.35;85.51;101531.00;8358415;28;20211;-61
2022/05/06 07:19:54;;;;;;;80.65;46.95;;;;;;;16.68;82.93;101532.28;8369419;28;20033;-60
2022/05/06 07:23:55;;;;;;;78.68;47.30;;;;;;;16.57;83.44;101537.97;8370599;28;20064;-61
2022/05/06 07:27:55;;;;;;;87.22;49.90;;;;;;;16.58;85.09;101531.47;8332388;28;20052;-61
2022/05/06 07:31:55;;;;;;;85.03;46.00;;;;;;;16.99;84.28;101536.34;8347701;28;20485;-60
2022/05/06 07:35:56;;;;;;;83.63;44.72;;;;;;;17.25;81.75;101531.78;8360904;28;20171;-60
2022/05/06 07:39:57;;;;;;;83.53;45.65;;;;;;;17.46;79.54;101535.91;8375788;28;20033;-60
2022/05/06 07:43:57;;;;;;;74.93;44.67;;;;;;;17.20;80.56;101536.88;8366563;28;20330;-60
2022/05/06 07:47:58;;;;;;;78.18;43.92;;;;;;;17.69;79.10;101522.56;8343773;28;20117;-60
2022/05/06 07:51:58;;;;;;;77.30;41.78;;;;;;;17.66;77.88;101530.22;8347863;28;20037;-60
2022/05/06 07:55:58;;;;;;;83.57;42.78;;;;;;;17.85;78.97;101530.84;8375145;28;20084;-60
2022/05/06 07:59:59;;;;;;;71.93;41.45;;;;;;;17.89;78.34;101526.75;8352434;28;20075;-60
2022/05/06 08:05:00;;;;;;;79.90;40.80;;;;;;;17.71;76.33;101525.13;8379000;28;20067;-60
2022/05/06 08:08:19;;;;;;;77.10;41.42;;;;;;;18.07;77.16;101524.81;8369146;28;20366;-60
2022/05/06 08:12:20;;;;;;;75.20;41.90;;;;;;;18.59;75.09;101520.03;8374858;28;20334;-61
2022/05/06 08:16:20;;;;;;;88.03;45.00;;;;;;;18.32;74.78;101526.59;8341651;28;20413;-60
2022/05/06 08:20:20;;;;;;;78.20;41.67;;;;;;;18.82;76.13;101521.97;8335922;28;20272;-60
2022/05/06 08:24:22;;;;;;;75.20;41.67;;;;;;;19.24;73.75;101514.44;8340976;28;20090;-60
2022/05/06 08:28:22;;;;;;;78.43;41.85;;;;;;;19.52;72.46;101514.97;8368994;28;20037;-60
2022/05/06 08:32:22;;;;;;;70.57;40.30;;;;;;;19.46;73.20;101513.75;8378273;28;20043;-62
2022/05/06 08:36:23;;;;;;;83.33;42.53;;;;;;;19.65;71.87;101517.16;8369340;28;20032;-61
2022/05/06 08:40:26;;;;;;;71.72;38.83;;;;;;;19.73;70.59;101523.47;8381394;28;20858;-60
2022/05/06 08:53:09;;;;;;;67.57;36.55;;;;;;;20.42;69.80;101514.50;8362224;28;20551;-60
2022/05/06 08:57:10;;;;;;;64.93;36.15;;;;;;;20.44;67.58;101512.44;8380274;28;20488;-60
2022/05/06 09:01:12;;;;;;;66.15;34.85;;;;;;;20.50;67.49;101514.47;8378297;28;20518;-61
2022/05/06 09:05:16;;;;;;;58.08;33.47;;;;;;;20.82;64.95;101514.25;8375876;28;20481;-61
2022/05/06 09:09:18;;;;;;;63.47;32.50;;;;;;;20.85;65.63;101514.75;8372970;28;20029;-60
2022/05/06 09:13:24;;;;;;;53.05;31.00;;;;;;;21.08;65.12;101509.28;8376289;28;20143;-61
2022/05/06 09:17:25;;;;;;;61.25;31.92;;;;;;;21.08;64.59;101512.03;8368326;28;20530;-61
2022/05/06 09:21:26;;;;;;;56.08;28.38;;;;;;;21.43;63.02;101507.78;8354885;28;20382;-61
2022/05/06 09:25:49;;;;;;;45.38;27.92;;;;;;;20.95;60.32;101511.81;8380090;28;20040;-60
2022/05/06 09:29:54;;;;;;;57.08;26.55;;;;;;;21.00;59.10;101514.84;8376525;28;20034;-60
2022/05/06 09:34:09;;;;;;;45.40;26.88;;;;;;;21.79;59.57;101511.53;8375324;28;20064;-61
2022/05/06 09:38:16;;;;;;;43.55;23.98;;;;;;;22.25;59.26;101508.38;8335225;28;20033;-61
2022/05/06 09:42:24;;;;;;;47.83;23.75;;;;;;;22.45;57.16;101503.97;8336568;28;20040;-61
2022/05/06 09:46:24;;;;;;;48.20;25.98;;;;;;;22.89;54.58;101495.59;8332303;28;20473;-61
2022/05/06 09:50:45;;;;;;;54.10;31.17;;;;;;;23.17;56.87;101499.25;8339020;28;20068;-61
2022/05/06 09:54:48;;;;;;;52.58;32.45;;;;;;;23.56;54.85;101496.00;8353632;28;20040;-61
2022/05/06 09:58:51;;;;;;;51.05;29.98;;;;;;;25.83;52.16;101493.13;8380724;28;20119;-60
2022/05/06 10:02:51;;;;;;;47.83;27.65;;;;;;;25.92;49.58;101494.59;8366526;28;20535;-60
2022/05/06 10:06:55;;;;;;;46.45;26.67;;;;;;;25.57;48.93;101500.63;8383626;28;20431;-60
2022/05/06 10:10:59;;;;;;;44.75;25.50;;;;;;;26.84;47.80;101493.19;8369438;28;20044;-60
2022/05/06 10:15:02;;;;;;;;;;;;;;;27.38;45.33;101492.59;8363161;28;20511;-61
2022/05/06 10:19:04;;;;;;;35.92;21.27;;;;;;;28.18;46.84;101491.63;8365002;28;19921;-61
2022/05/06 10:23:07;;;;;;;29.17;17.80;;;;;;;28.55;42.22;101487.75;8351037;28;20036;-61
2022/05/06 10:27:23;;;;;;;29.65;15.90;;;;;;;28.05;40.95;101477.84;8376602;28;20147;-61
2022/05/06 10:35:39;;;;;;;34.13;19.08;;;;;;;28.83;41.17;101479.66;8318059;27;20397;-60
2022/05/06 10:39:40;;;;;;;34.10;21.08;;;;;;;29.56;42.16;101467.09;8287596;28;20069;-60
2022/05/06 10:47:53;;;;;;;29.67;19.67;;;;;;;29.61;41.05;101477.53;8343910;27;20173;-62
2022/05/06 10:56:30;;;;;;;30.55;20.80;;;;;;;27.83;42.18;101466.31;8390920;27;20399;-62
2022/05/06 11:00:33;;;;;;;31.63;19.45;;;;;;;27.70;42.75;101462.81;8379636;28;20033;-62
2022/05/06 11:04:33;;;;;;;30.58;18.63;;;;;;;28.19;43.07;101468.28;8379170;28;20451;-62
2022/05/06 11:08:34;;;;;;;31.33;19.83;;;;;;;27.36;42.25;101464.22;8381934;28;20056;-62
2022/05/06 11:12:37;;;;;;;29.98;18.75;;;;;;;26.24;43.89;101462.31;8379563;28;20392;-62
2022/05/06 11:16:38;;;;;;;29.70;17.47;;;;;;;27.60;42.70;101455.00;8381746;28;20127;-62
2022/05/06 11:20:39;;;;;;;28.55;17.23;;;;;;;27.21;43.70;101454.47;8381466;28;20041;-62
2022/05/06 11:24:39;;;;;;;27.48;17.80;;;;;;;27.16;42.65;101451.53;8381513;28;20481;-62
2022/05/06 11:28:40;;;;;;;24.77;16.37;;;;;;;26.45;42.33;101454.56;8381749;28;20106;-62
2022/05/06 11:32:47;;;;;;;30.95;19.33;;;;;;;28.32;43.15;101448.63;8375076;28;20049;-62
2022/05/06 11:36:48;;;;;;;28.52;19.90;;;;;;;27.90;41.53;101449.59;8380093;28;20151;-63
2022/05/06 11:40:48;;;;;;;24.92;15.98;;;;;;;28.74;41.41;101442.06;8379892;28;20107;-62
2022/05/06 11:49:26;;;;;;;30.40;18.73;;;;;;;28.09;41.53;101437.38;8375093;28;20519;-61
2022/05/06 11:53:27;;;;;;;28.55;19.85;;;;;;;27.13;42.59;101435.31;8371957;28;20457;-62
2022/05/06 11:57:29;;;;;;;27.95;19.90;;;;;;;26.13;46.50;101429.75;8376040;28;20085;-62
2022/05/06 12:01:31;;;;;;;32.17;20.42;;;;;;;25.17;47.46;101427.75;8377015;28;20040;-62
2022/05/06 12:05:34;;;;;;;33.03;20.85;;;;;;;24.39;48.79;101427.59;8364044;28;20040;-62
2022/05/06 12:09:43;;;;;;;30.50;20.00;;;;;;;23.91;51.47;101420.41;8355707;28;20544;-61
2022/05/06 12:13:43;;;;;;;25.08;17.83;;;;;;;24.14;47.97;101418.16;8350158;28;20033;-62
2022/05/06 12:17:43;;;;;;;29.23;18.80;;;;;;;23.49;49.78;101410.38;8353928;28;20052;-62
2022/05/06 12:21:44;;;;;;;29.77;16.97;;;;;;;23.95;48.17;101410.66;8353979;28;20283;-62
2022/05/06 12:25:53;;;;;;;20.95;13.95;;;;;;;23.47;50.08;101408.84;8350448;28;20051;-62
2022/05/06 12:29:55;;;;;;;16.48;11.05;;;;;;;23.95;48.75;101410.66;8354961;28;20535;-62
2022/05/06 12:34:10;;;;;;;21.02;12.32;;;;;;;24.18;49.21;101400.13;8352687;28;20044;-62
2022/05/06 12:38:11;;;;;;;22.88;13.90;;;;;;;23.70;46.74;101406.69;8355082;28;20037;-62
2022/05/06 12:42:12;;;;;;;20.73;14.33;;;;;;;23.25;47.95;101401.72;8346478;28;20071;-62
2022/05/06 12:46:30;;;;;;;19.27;13.52;;;;;;;23.05;49.99;101396.88;8348677;28;20791;-61
2022/05/06 12:50:30;;;;;;;16.75;12.43;;;;;;;23.26;48.52;101386.88;8349638;28;20124;-61
2022/05/06 12:54:31;;;;;;;27.67;16.45;;;;;;;22.49;47.96;101384.03;8351770;28;20033;-61
2022/05/06 12:58:32;;;;;;;20.77;13.60;;;;;;;23.07;48.62;101383.72;8350036;28;20056;-61
2022/05/06 13:02:32;;;;;;;26.17;15.18;;;;;;;22.45;49.69;101387.38;8351060;28;20037;-60
2022/05/06 13:06:33;;;;;;;23.27;13.57;;;;;;;22.58;49.55;101382.88;8353357;28;20040;-61
2022/05/06 13:10:33;;;;;;;24.90;14.75;;;;;;;22.17;49.74;101378.16;8350002;28;20759;-61
2022/05/06 13:14:33;;;;;;;19.48;11.98;;;;;;;22.94;50.11;101377.25;8344414;28;20144;-61
2022/05/06 13:18:34;;;;;;;20.97;13.63;;;;;;;23.41;49.83;101373.78;8348957;28;20094;-61
2022/05/06 13:22:35;;;;;;;17.38;10.95;;;;;;;22.99;47.54;101366.44;8349127;28;20290;-61
2022/05/06 13:26:36;;;;;;;18.38;11.35;;;;;;;23.46;48.97;101371.28;8348637;28;20040;-61
2022/05/06 13:30:36;;;;;;;25.98;13.57;;;;;;;22.79;51.02;101365.47;8347661;28;20055;-60
2022/05/06 13:34:37;;;;;;;27.23;11.67;;;;;;;22.96;50.28;101364.97;8348756;28;20037;-61
2022/05/06 13:38:37;;;;;;;21.40;11.43;;;;;;;22.75;49.71;101362.22;8332444;28;20294;-61
2022/05/06 13:42:37;;;;;;;20.60;12.70;;;;;;;22.43;49.25;101360.00;8343584;28;20075;-61
2022/05/06 13:46:38;;;;;;;23.27;12.00;;;;;;;22.35;50.09;101362.03;8350904;28;20048;-61
2022/05/06 13:50:39;;;;;;;28.30;12.50;;;;;;;22.56;49.79;101365.66;8348987;28;20390;-61
2022/05/06 13:54:39;;;;;;;21.83;9.88;;;;;;;22.86;51.23;101358.94;8350015;28;20064;-60
2022/05/06 13:59:11;;;;;;;20.15;11.13;;;;;;;22.76;49.72;101346.56;8347843;28;20064;-61
2022/05/06 14:03:00;;;;;;;19.08;10.82;;;;;;;22.18;49.60;101347.66;8346646;28;20147;-61
2022/05/06 14:07:00;;;;;;;20.20;11.20;;;;;;;21.85;49.29;101349.19;8350210;28;20166;-60
2022/05/06 14:11:01;;;;;;;14.97;10.63;;;;;;;21.72;48.84;101351.75;8347649;28;20863;-61
2022/05/06 14:15:02;;;;;;;17.38;10.40;;;;;;;21.87;49.08;101348.97;8344569;28;20271;-61
2022/05/06 14:19:02;;;;;;;19.08;9.55;;;;;;;22.25;48.60;101344.97;8347859;28;20052;-61
2022/05/06 14:23:03;;;;;;;15.40;9.90;;;;;;;22.44;48.33;101347.91;8352285;28;20072;-60
2022/05/06 14:27:05;;;;;;;15.68;9.52;;;;;;;22.49;50.07;101345.44;8349087;28;20428;-61
2022/05/06 14:31:05;;;;;;;17.30;9.60;;;;;;;22.49;50.34;101339.91;8349266;28;20052;-60
2022/05/06 14:35:21;;;;;;;15.18;10.05;;;;;;;22.33;48.42;101345.72;8341907;28;20280;-61
2022/05/06 14:39:21;;;;;;;16.75;10.70;;;;;;;22.48;48.54;101338.19;8342737;28;20048;-60
2022/05/06 14:43:22;;;;;;;13.13;9.15;;;;;;;22.72;50.69;101335.06;8343292;28;20045;-61
2022/05/06 14:47:22;;;;;;;14.80;10.87;;;;;;;22.93;50.11;101342.44;8344947;28;20037;-61
2022/05/06 14:51:24;;;;;;;21.60;13.20;;;;;;;22.18;49.24;101331.13;8343421;28;20283;-61
2022/05/06 14:55:24;;;;;;;19.45;13.43;;;;;;;22.05;50.53;101330.97;8342916;28;20827;-61
2022/05/06 14:59:25;;;;;;;22.83;13.93;;;;;;;21.98;50.36;101330.06;8344148;28;20436;-61
2022/05/06 15:03:28;;;;;;;26.05;13.70;;;;;;;21.90;50.31;101332.94;8346173;28;20123;-61
2022/05/06 15:07:29;;;;;;;19.77;12.20;;;;;;;21.89;50.67;101336.72;8347786;28;20140;-61
2022/05/06 15:11:30;;;;;;;20.98;13.57;;;;;;;21.85;51.98;101329.91;8345000;28;20049;-62
2022/05/06 15:15:31;;;;;;;24.75;14.65;;;;;;;21.66;52.14;101330.50;8345812;28;20196;-61
2022/05/06 15:19:34;;;;;;;20.98;13.68;;;;;;;21.98;53.54;101332.81;8338700;28;20068;-61
2022/05/06 15:23:35;;;;;;;25.23;14.20;;;;;;;21.81;51.54;101334.09;8337463;28;20059;-61
2022/05/06 15:27:35;;;;;;;29.25;15.82;;;;;;;21.83;51.87;101331.97;8339296;28;20037;-60
2022/05/06 15:31:36;;;;;;;23.55;14.27;;;;;;;21.89;51.68;101325.69;8336323;28;20060;-62
2022/05/06 15:35:36;;;;;;;20.13;14.10;;;;;;;21.74;51.38;101321.31;8335831;28;20102;-61
2022/05/06 15:39:36;;;;;;;19.90;13.60;;;;;;;21.67;50.92;101325.81;8343481;28;20045;-61
2022/05/06 15:43:38;;;;;;;20.77;14.10;;;;;;;21.53;51.76;101312.94;8338426;28;20271;-61
2022/05/06 15:47:38;;;;;;;21.05;13.90;;;;;;;21.34;51.67;101325.38;8342837;28;20608;-61
2022/05/06 15:51:41;;;;;;;22.63;12.70;;;;;;;21.35;52.08;101322.44;8341257;28;20060;-61
2022/05/06 15:55:41;;;;;;;21.17;12.90;;;;;;;21.34;52.52;101319.88;8340546;28;20052;-61
2022/05/06 15:59:42;;;;;;;19.63;11.80;;;;;;;21.50;54.01;101318.84;8343519;28;20060;-61
2022/05/06 16:03:42;;;;;;;17.00;11.30;;;;;;;21.78;52.41;101322.59;8340328;28;20791;-62
2022/05/06 16:07:43;;;;;;;18.48;11.52;;;;;;;21.67;51.52;101304.66;8348645;28;20049;-61
2022/05/06 16:11:43;;;;;;;22.47;11.07;;;;;;;21.57;51.40;101304.13;8346330;28;20041;-61
2022/05/06 16:15:43;;;;;;;15.57;10.50;;;;;;;21.60;51.64;101317.50;8347230;28;20280;-61
2022/05/06 16:19:44;;;;;;;17.95;11.77;;;;;;;21.64;50.95;101309.69;8347519;28;20283;-61
2022/05/06 16:23:44;;;;;;;17.42;10.45;;;;;;;21.68;51.04;101313.78;8343373;28;20389;-61
2022/05/06 16:27:45;;;;;;;17.00;10.30;;;;;;;21.74;50.58;101308.38;8341977;28;20053;-62
2022/05/06 16:31:46;;;;;;;19.67;9.70;;;;;;;21.71;51.03;101303.22;8343705;28;20444;-60
2022/05/06 16:40:10;;;;;;;19.10;9.90;;;;;;;21.57;51.05;101293.09;8340999;28;20037;-61
2022/05/06 16:44:10;;;;;;;14.45;8.90;;;;;;;21.58;50.69;101300.31;8343448;28;20091;-60
2022/05/06 16:48:11;;;;;;;12.88;8.75;;;;;;;21.49;50.85;101290.44;8345889;28;20049;-61
2022/05/06 16:52:11;;;;;;;15.88;8.77;;;;;;;21.49;51.69;101290.44;8341600;28;20041;-61
2022/05/06 16:56:12;;;;;;;16.67;10.27;;;;;;;21.31;51.87;101287.25;8341011;28;20405;-61
2022/05/06 17:00:15;;;;;;;15.35;9.98;;;;;;;21.24;51.56;101286.31;8340672;28;20275;-61
2022/05/06 17:04:16;;;;;;;19.80;11.07;;;;;;;21.26;51.61;101290.56;8344071;28;20407;-61
2022/05/06 17:08:16;;;;;;;14.38;9.32;;;;;;;21.25;51.89;101288.00;8340083;28;20069;-61
2022/05/06 17:12:16;;;;;;;16.15;9.18;;;;;;;21.22;51.70;101291.13;8344797;28;20041;-61
2022/05/06 17:16:17;;;;;;;13.47;8.23;;;;;;;21.21;51.95;101289.44;8344876;28;20053;-60
2022/05/06 17:20:17;;;;;;;17.63;8.37;;;;;;;21.19;52.08;101291.53;8342614;28;20900;-61
2022/05/06 17:24:20;;;;;;;15.10;8.13;;;;;;;21.16;52.36;101286.41;8342068;28;20288;-60
2022/05/06 17:28:20;;;;;;;13.35;8.70;;;;;;;21.11;52.44;101283.38;8345441;28;20110;-61
2022/05/06 17:32:23;;;;;;;14.77;8.30;;;;;;;21.04;52.30;101290.66;8343524;28;20052;-60
2022/05/06 17:36:26;;;;;;;11.73;7.88;;;;;;;20.96;52.27;101288.03;8341199;28;20299;-61
2022/05/06 17:40:27;;;;;;;11.05;7.45;;;;;;;20.91;52.27;101293.19;8312902;28;20185;-61
2022/05/06 17:44:27;;;;;;;13.63;7.60;;;;;;;20.91;52.03;101279.44;8328315;28;20133;-60
2022/05/06 17:48:27;;;;;;;13.57;8.07;;;;;;;20.87;52.09;101283.63;8340856;28;20125;-60
2022/05/06 17:52:29;;;;;;;14.02;8.20;;;;;;;20.76;52.60;101292.31;8343267;28;20880;-60
2022/05/06 17:56:29;;;;;;;10.48;7.32;;;;;;;20.58;53.83;101289.06;8340225;28;20045;-60
2022/05/06 18:01:30;;;;;;;12.30;7.17;;;;;;;20.41;56.46;101290.28;8340544;28;20120;-61
2022/05/06 18:04:50;;;;;;;13.88;8.98;;;;;;;20.49;54.18;101290.22;8326520;28;20897;-60
2022/05/06 18:08:51;;;;;;;16.17;9.00;;;;;;;20.41;54.67;101287.53;8335878;28;20409;-61
2022/05/06 18:12:51;;;;;;;17.13;7.78;;;;;;;20.30;54.83;101286.06;8332665;28;20064;-61
2022/05/06 18:16:52;;;;;;;11.38;7.93;;;;;;;20.13;56.51;101291.88;8325016;28;20124;-61
2022/05/06 18:20:52;;;;;;;12.15;8.38;;;;;;;19.84;57.70;101277.97;8341541;28;20080;-61
2022/05/06 18:24:52;;;;;;;11.32;7.88;;;;;;;19.30;61.63;101294.41;8335834;28;20075;-61
2022/05/06 18:28:53;;;;;;;11.15;8.00;;;;;;;19.01;61.27;101285.94;8340442;28;20171;-61
2022/05/06 18:33:24;;;;;;;15.30;8.27;;;;;;;19.03;59.80;101289.31;8343377;28;20067;-61
2022/05/06 18:37:13;;;;;;;13.32;8.05;;;;;;;19.11;59.83;101286.56;8344728;28;20272;-61
2022/05/06 18:41:14;;;;;;;11.95;7.78;;;;;;;18.84;63.20;101295.22;8347397;28;20036;-61
2022/05/06 18:45:14;;;;;;;10.80;8.20;;;;;;;18.17;66.33;101305.69;8345842;28;20523;-61
2022/05/06 18:49:14;;;;;;;15.95;7.57;;;;;;;17.67;70.57;101308.50;8350138;28;20271;-61
2022/05/06 18:53:21;;;;;;;7.90;6.70;;;;;;;17.27;71.65;101311.06;8348144;28;20049;-61
2022/05/06 18:57:22;;;;;;;9.63;6.70;;;;;;;17.13;72.27;101314.41;8349204;28;20264;-61